Time;durP1;ratioP1;P1;durP2;ratioP2;P2;SDS_P1;SDS_P2;PMS_P1;PMS_P2;Temp;Humidity;BMP_temperature;BMP_pressure;BME280_temperature;BME280_humidity;BME280_pressure;Samples;Min_cycle;Max_cycle;Signal;HPM_P1;HPM_P2
2022/01/19 00:00:54;;;;;;;;;27.00;23.50;;;;;7.53;63.77;102290.97;5054992;28;45579;-70
2022/01/19 00:03:19;;;;;;;;;21.75;21.25;;;;;7.44;64.41;102285.69;5038659;28;45481;-68
2022/01/19 00:05:45;;;;;;;;;26.50;23.00;;;;;7.45;64.51;102292.66;5055710;28;45440;-68
2022/01/19 00:08:17;;;;;;;;;33.50;28.25;;;;;7.43;64.29;102293.53;5050544;28;45569;-69
2022/01/19 00:10:43;;;;;;;;;26.00;25.50;;;;;7.40;63.97;102302.25;5055930;28;45468;-68
2022/01/19 00:13:08;;;;;;;;;31.25;30.50;;;;;7.36;64.34;102300.50;5055698;28;45428;-70
2022/01/19 00:15:34;;;;;;;;;25.75;24.00;;;;;7.34;64.29;102302.22;5053176;28;46194;-69
2022/01/19 00:17:59;;;;;;;;;30.25;26.75;;;;;7.38;64.29;102295.25;5054981;28;45503;-69
2022/01/19 00:20:27;;;;;;;;;31.00;26.50;;;;;7.37;63.73;102270.81;5056323;28;45389;-69
2022/01/19 00:22:53;;;;;;;;;21.50;21.50;;;;;7.41;64.06;102256.00;5056129;28;45488;-69
2022/01/19 00:25:19;;;;;;;;;29.00;25.25;;;;;7.41;64.32;102248.13;5054356;28;45440;-67
2022/01/19 00:27:45;;;;;;;;;22.50;22.50;;;;;7.37;64.44;102235.94;5048300;28;45669;-68
2022/01/19 00:30:11;;;;;;;;;21.50;19.25;;;;;7.38;64.05;102243.75;5055507;28;45417;-69
2022/01/19 00:32:36;;;;;;;;;25.25;22.75;;;;;7.41;64.34;102229.81;5055987;28;45447;-70
2022/01/19 00:35:04;;;;;;;;;23.00;23.00;;;;;7.44;64.15;102222.88;5054908;28;45479;-68
2022/01/19 00:37:29;;;;;;;;;32.00;29.25;;;;;7.41;64.03;102207.13;5057310;28;45316;-72
2022/01/19 00:39:54;;;;;;;;;27.25;25.00;;;;;7.47;63.89;102216.78;5038427;28;45508;-72
2022/01/19 00:42:20;;;;;;;;;30.50;28.25;;;;;7.44;63.54;102225.50;5056095;28;45522;-69
2022/01/19 00:44:46;;;;;;;;;24.75;21.00;;;;;7.45;63.70;102242.94;5056582;28;46279;-71
2022/01/19 00:47:12;;;;;;;;;41.00;35.75;;;;;7.46;63.78;102236.81;5058936;28;45385;-68
2022/01/19 00:49:38;;;;;;;;;35.50;34.25;;;;;7.47;64.04;102237.72;5061552;28;45347;-67
2022/01/19 00:52:09;;;;;;;;;99.00;93.75;;;;;7.46;64.39;102239.44;5056780;28;45567;-68
2022/01/19 00:54:35;;;;;;;;;24.50;24.50;;;;;7.47;63.76;102242.94;5055913;28;45696;-70
2022/01/19 00:57:01;;;;;;;;;23.25;21.75;;;;;7.43;63.87;102259.50;5056037;28;45447;-68
2022/01/19 00:59:26;;;;;;;;;24.75;21.75;;;;;7.41;63.57;102249.00;5055801;28;45523;-67
2022/01/19 01:01:52;;;;;;;;;20.50;20.25;;;;;7.44;63.57;102240.28;5055883;28;45373;-68
2022/01/19 01:04:17;;;;;;;;;20.75;20.50;;;;;7.44;62.93;102235.06;5056011;28;45491;-68
2022/01/19 01:06:42;;;;;;;;;22.25;21.75;;;;;7.43;63.51;102235.94;5055267;28;45381;-69
2022/01/19 01:09:09;;;;;;;;;23.25;22.25;;;;;7.40;63.23;102228.09;5056290;28;45642;-70
2022/01/19 01:11:45;;;;;;;;;21.25;21.25;;;;;7.37;63.64;102228.94;5034260;28;45678;-67
2022/01/19 01:16:58;;;;;;;;;36.25;33.50;;;;;7.31;63.98;102205.38;5056088;28;45404;-69
2022/01/19 01:19:24;;;;;;;;;22.50;21.25;;;;;7.34;63.99;102201.91;5054630;28;45415;-68
2022/01/19 01:21:49;;;;;;;;;23.75;22.75;;;;;7.30;63.59;102194.00;5050342;28;45521;-68
2022/01/19 01:24:15;;;;;;;;;31.75;29.00;;;;;7.33;63.97;102185.28;5055360;28;45440;-68
2022/01/19 01:26:40;;;;;;;;;25.25;24.25;;;;;7.37;63.61;102186.19;5055642;28;45491;-68
2022/01/19 01:29:06;;;;;;;;;27.75;27.75;;;;;7.37;63.85;102191.44;5033230;28;45487;-67
2022/01/19 01:31:31;;;;;;;;;40.00;33.50;;;;;7.38;63.60;102199.28;5043759;28;45599;-66
2022/01/19 01:33:56;;;;;;;;;35.25;30.50;;;;;7.35;63.08;102201.00;5049137;28;46251;-68
2022/01/19 01:36:22;;;;;;;;;42.25;38.00;;;;;7.40;63.81;102204.53;5053909;28;45562;-69
2022/01/19 01:38:47;;;;;;;;;44.00;40.25;;;;;7.37;63.46;102201.91;5055517;28;45437;-70
2022/01/19 01:41:14;;;;;;;;;43.25;38.50;;;;;7.34;63.35;102210.63;5036086;28;45408;-67
2022/01/19 01:43:44;;;;;;;;;74.50;60.50;;;;;7.35;64.21;102211.47;5054744;28;45515;-67
2022/01/19 01:46:19;;;;;;;;;60.50;49.00;;;;;7.37;63.62;102196.66;5055006;28;45468;-68
2022/01/19 01:48:46;;;;;;;;;46.75;40.00;;;;;7.37;63.52;102199.28;5055243;28;45424;-71
2022/01/19 01:53:57;;;;;;;;;50.25;40.50;;;;;7.38;63.72;102187.94;5054096;28;45526;-65
2022/01/19 01:56:23;;;;;;;;;26.50;23.00;;;;;7.38;63.31;102194.03;5055205;28;45643;-69
2022/01/19 01:58:50;;;;;;;;;35.50;32.75;;;;;7.36;63.07;102179.19;5055139;28;45432;-68
2022/01/19 02:01:17;;;;;;;;;26.50;26.00;;;;;7.41;63.19;102190.56;5055133;28;45467;-68
2022/01/19 02:03:44;;;;;;;;;31.25;28.75;;;;;7.40;63.46;102179.22;5067479;28;46189;-67
2022/01/19 02:08:51;;;;;;;;;29.75;26.75;;;;;7.40;63.23;102173.13;5058550;28;45421;-66
2022/01/19 02:22:03;;;;;;;;;23.75;23.25;;;;;7.40;62.88;102149.56;5058528;28;45427;-69
2022/01/19 02:24:41;;;;;;;;;31.00;25.75;;;;;7.37;63.62;102126.00;5057030;28;45509;-68
2022/01/19 02:28:57;;;;;;;;;25.50;22.00;;;;;7.32;63.08;102125.09;5058563;28;45501;-72
2022/01/19 02:40:58;;;;;;;;;36.25;36.25;;;;;7.34;63.65;102100.69;5057628;28;45769;-65
2022/01/19 02:43:26;;;;;;;;;49.50;41.75;;;;;7.35;63.79;102096.31;5058009;28;45392;-65
2022/01/19 02:51:20;;;;;;;;;35.50;29.50;;;;;7.36;63.17;102083.25;5057539;28;45467;-67
2022/01/19 02:53:46;;;;;;;;;31.25;29.50;;;;;7.36;62.97;102079.72;5055920;28;45733;-68
2022/01/19 02:56:18;;;;;;;;;31.25;26.50;;;;;7.38;63.36;102083.25;5057303;28;45479;-65
2022/01/19 02:58:50;;;;;;;;;31.50;29.75;;;;;7.35;62.77;102078.00;5057193;28;45623;-67
2022/01/19 03:09:21;;;;;;;;;22.50;18.00;;;;;7.28;62.42;102072.75;5052364;28;45514;-67
2022/01/19 03:11:46;;;;;;;;;33.00;29.75;;;;;7.29;62.28;102078.88;5055864;28;45503;-66
2022/01/19 03:14:12;;;;;;;;;25.75;25.75;;;;;7.23;62.95;102068.41;5057754;28;45589;-69
2022/01/19 03:16:37;;;;;;;;;26.00;21.00;;;;;7.28;62.76;102075.38;5057110;28;45592;-68
2022/01/19 03:19:06;;;;;;;;;29.50;25.50;;;;;7.23;62.52;102071.00;5057432;28;45380;-68
2022/01/19 03:21:32;;;;;;;;;28.50;24.00;;;;;7.24;62.27;102059.66;5057452;28;45519;-69
2022/01/19 03:23:58;;;;;;;;;29.25;29.00;;;;;7.28;62.28;102066.63;5057615;28;45681;-68
2022/01/19 03:26:23;;;;;;;;;27.50;26.50;;;;;7.25;62.80;102064.91;5050797;28;46047;-67
2022/01/19 03:28:48;;;;;;;;;28.50;24.50;;;;;7.28;62.64;102061.41;5038465;28;45419;-66
2022/01/19 03:31:14;;;;;;;;;28.25;26.50;;;;;7.29;62.23;102057.94;5038337;28;45448;-67
2022/01/19 03:33:39;;;;;;;;;34.75;27.50;;;;;7.28;62.06;102054.44;5055906;28;45512;-68
2022/01/19 03:36:05;;;;;;;;;25.50;23.75;;;;;7.28;62.52;102049.22;5054409;28;46538;-66
2022/01/19 03:38:30;;;;;;;;;30.25;24.25;;;;;7.29;62.69;102053.56;5037938;28;45390;-66
2022/01/19 03:40:55;;;;;;;;;29.00;27.00;;;;;7.31;62.58;102056.19;5057282;28;45374;-67
2022/01/19 03:43:21;;;;;;;;;28.00;25.50;;;;;7.32;62.24;102055.31;5056991;28;45541;-67
2022/01/19 03:45:52;;;;;;;;;24.00;24.00;;;;;7.32;61.98;102055.31;5056979;28;46020;-67
2022/01/19 03:48:42;;;;;;;;;28.00;28.00;;;;;7.29;62.12;102047.47;5057147;28;45452;-67
2022/01/19 03:51:08;;;;;;;;;28.00;26.50;;;;;7.30;62.65;102047.44;5057298;28;46265;-67
2022/01/19 03:53:33;;;;;;;;;27.25;25.00;;;;;7.30;62.56;102039.59;5056229;28;45488;-67
2022/01/19 03:55:59;;;;;;;;;27.25;26.00;;;;;7.30;62.49;102039.59;5056330;28;46149;-67
2022/01/19 03:58:24;;;;;;;;;30.75;28.50;;;;;7.30;62.32;102039.59;5056136;28;45393;-67
2022/01/19 04:00:54;;;;;;;;;29.75;27.75;;;;;7.32;61.92;102039.63;5054913;28;45520;-67
2022/01/19 04:03:27;;;;;;;;;29.75;28.75;;;;;7.30;62.40;102026.50;5055905;28;45440;-67
2022/01/19 04:08:17;;;;;;;;;26.00;26.00;;;;;7.34;62.71;102024.78;5056306;28;45554;-67
2022/01/19 04:10:43;;;;;;;;;29.50;29.00;;;;;7.35;62.67;102023.03;5056607;28;45400;-67
2022/01/19 04:13:22;;;;;;;;;32.25;27.50;;;;;7.33;62.66;102022.16;5055607;28;45530;-67
2022/01/19 04:15:48;;;;;;;;;31.25;29.75;;;;;7.34;62.19;102021.31;5034224;28;47459;-67
2022/01/19 04:18:13;;;;;;;;;30.25;29.75;;;;;7.32;62.11;102016.06;5036709;28;45471;-67
2022/01/19 04:20:42;;;;;;;;;27.75;26.25;;;;;7.35;62.64;102020.44;5036770;28;45855;-67
2022/01/19 04:23:07;;;;;;;;;30.75;28.75;;;;;7.29;62.58;102022.16;5036908;28;45637;-67
2022/01/19 04:25:33;;;;;;;;;33.25;31.00;;;;;7.32;62.66;102026.53;5042431;28;45931;-67
2022/01/19 04:27:58;;;;;;;;;24.75;24.75;;;;;7.32;62.64;102025.66;5056449;28;45538;-67
2022/01/19 04:30:27;;;;;;;;;28.00;28.00;;;;;7.26;62.92;102021.28;5056621;28;45368;-68
2022/01/19 04:35:27;;;;;;;;;25.75;25.00;;;;;7.26;62.79;102019.53;5051544;28;45500;-67
2022/01/19 04:46:23;;;;;;;;;30.00;27.75;;;;;7.20;62.65;102022.16;5056084;28;45850;-67
2022/01/19 05:15:40;;;;;;;;;32.00;32.00;;;;;7.37;62.87;102013.47;5055717;28;45441;-67
2022/01/19 05:18:06;;;;;;;;;31.00;28.00;;;;;7.38;63.20;102013.44;5054985;28;46319;-67
2022/01/19 05:20:32;;;;;;;;;32.50;30.25;;;;;7.37;63.47;102008.22;5054374;28;45312;-69
2022/01/19 05:22:58;;;;;;;;;34.75;31.75;;;;;7.40;62.65;102013.44;5056145;28;45386;-66
2022/01/19 05:25:23;;;;;;;;;32.50;29.75;;;;;7.38;62.69;102002.97;5055718;28;45561;-66
2022/01/19 05:27:49;;;;;;;;;33.00;30.00;;;;;7.39;62.68;102001.22;5055409;28;52801;-66
2022/01/19 05:30:17;;;;;;;;;36.25;29.75;;;;;7.38;62.51;102002.09;5056175;28;45432;-67
2022/01/19 05:32:45;;;;;;;;;28.50;24.50;;;;;7.40;63.08;102011.69;5056657;28;45436;-66
2022/01/19 05:35:11;;;;;;;;;32.00;29.75;;;;;7.42;63.16;102009.09;5054085;28;45539;-67
2022/01/19 05:37:36;;;;;;;;;34.75;28.00;;;;;7.41;62.42;102007.34;5054998;28;46464;-67
2022/01/19 05:40:11;;;;;;;;;33.75;31.75;;;;;7.38;62.95;102009.94;5053464;28;45418;-67
2022/01/19 05:42:36;;;;;;;;;34.50;34.50;;;;;7.32;63.19;102008.22;5054898;28;45606;-67
2022/01/19 05:45:03;;;;;;;;;34.75;33.25;;;;;7.34;63.46;102011.72;5054756;28;45338;-68
2022/01/19 05:47:28;;;;;;;;;32.50;30.00;;;;;7.34;63.44;102005.59;5058085;28;46447;-66
2022/01/19 05:49:54;;;;;;;;;27.50;27.50;;;;;7.36;62.85;102011.69;5054733;28;45609;-66
2022/01/19 05:52:19;;;;;;;;;35.50;33.25;;;;;7.35;63.29;102004.72;5054791;28;45914;-66
2022/01/19 05:54:45;;;;;;;;;32.00;27.75;;;;;7.33;63.72;102007.31;5053959;28;45427;-66
2022/01/19 05:57:11;;;;;;;;;26.25;26.00;;;;;7.33;63.88;102002.09;5054385;28;45422;-66
2022/01/19 05:59:36;;;;;;;;;32.25;31.00;;;;;7.32;63.61;102005.59;5054734;28;45422;-65
2022/01/19 06:02:02;;;;;;;;;37.00;33.25;;;;;7.31;63.38;102009.09;5054248;28;45607;-66
2022/01/19 06:04:27;;;;;;;;;38.25;33.00;;;;;7.25;63.56;102009.06;5054189;28;45494;-65
2022/01/19 06:06:56;;;;;;;;;27.25;27.25;;;;;7.25;64.06;102009.06;5054673;28;45427;-65
2022/01/19 06:09:34;;;;;;;;;35.50;32.25;;;;;7.23;63.85;102006.47;5054476;28;45558;-66
2022/01/19 06:12:11;;;;;;;;;27.75;26.25;;;;;7.21;63.57;102007.34;5053488;28;45471;-66
2022/01/19 06:14:39;;;;;;;;;34.75;32.50;;;;;7.20;64.01;102009.09;5057429;28;45569;-66
2022/01/19 06:17:07;;;;;;;;;70.50;55.25;;;;;7.16;63.84;101998.59;5051377;28;46786;-67
2022/01/19 06:19:32;;;;;;;;;35.25;31.25;;;;;7.15;64.41;102002.97;5054768;28;45736;-63
2022/01/19 06:21:58;;;;;;;;;37.75;31.25;;;;;7.11;64.33;101995.97;5054093;28;45539;-65
2022/01/19 06:24:23;;;;;;;;;36.00;33.75;;;;;7.13;64.41;102001.22;5054675;28;45531;-67
2022/01/19 06:26:49;;;;;;;;;36.50;31.75;;;;;7.15;64.88;102005.59;5054318;28;45502;-66
2022/01/19 06:29:15;;;;;;;;;34.75;33.75;;;;;7.16;64.33;102004.69;5054912;28;45441;-64
2022/01/19 06:31:41;;;;;;;;;34.75;34.00;;;;;7.13;64.69;101996.84;5054765;28;45490;-66
2022/01/19 06:34:06;;;;;;;;;29.00;26.75;;;;;7.17;64.55;102000.34;5054716;28;45619;-65
2022/01/19 06:36:31;;;;;;;;;37.00;34.50;;;;;7.16;64.45;101996.84;5054309;28;46634;-63
2022/01/19 06:38:57;;;;;;;;;36.25;29.00;;;;;7.15;64.46;101989.88;5053883;28;45443;-65
2022/01/19 06:41:23;;;;;;;;;35.50;32.50;;;;;7.21;64.75;101994.25;5054902;28;45469;-64
2022/01/19 06:43:48;;;;;;;;;44.25;39.00;;;;;7.21;64.74;102002.09;5054501;28;45557;-65
2022/01/19 06:46:14;;;;;;;;;38.50;35.00;;;;;7.19;65.04;101995.97;5054353;28;46061;-67
2022/01/19 06:48:39;;;;;;;;;40.75;37.75;;;;;7.11;64.74;101990.75;5054054;28;45480;-67
2022/01/19 06:51:05;;;;;;;;;45.25;39.50;;;;;7.10;65.47;102001.22;5054358;28;45982;-68
2022/01/19 06:53:30;;;;;;;;;35.75;34.50;;;;;7.08;65.34;101994.22;5054194;28;45432;-67
2022/01/19 06:55:57;;;;;;;;;39.25;36.75;;;;;7.10;65.52;101993.38;5054226;28;46241;-68
2022/01/19 06:58:23;;;;;;;;;39.00;35.75;;;;;7.13;65.05;101999.47;5055759;28;45452;-66
2022/01/19 07:00:49;;;;;;;;;40.25;37.75;;;;;7.16;65.33;101995.97;5057756;28;45468;-69
2022/01/19 07:03:14;;;;;;;;;40.50;36.75;;;;;7.18;64.83;101989.88;5057791;28;45426;-67
2022/01/19 07:05:40;;;;;;;;;40.50;36.25;;;;;7.16;65.52;101985.53;5058230;28;45464;-67
2022/01/19 07:08:06;;;;;;;;;36.25;34.75;;;;;7.17;65.21;101982.03;5057935;28;45444;-66
2022/01/19 07:10:31;;;;;;;;;44.00;38.00;;;;;7.18;65.48;101984.66;5057534;28;45372;-70
2022/01/19 07:13:04;;;;;;;;;38.50;36.00;;;;;7.20;65.27;101988.16;5058101;28;45373;-68
2022/01/19 07:15:30;;;;;;;;;42.50;40.25;;;;;7.24;65.50;101986.41;5058143;28;45483;-68
2022/01/19 07:17:55;;;;;;;;;46.75;39.50;;;;;7.22;65.85;101993.38;5057695;28;45492;-69
2022/01/19 07:20:20;;;;;;;;;37.00;35.75;;;;;7.20;65.81;101988.16;5057994;28;45441;-67
2022/01/19 07:22:47;;;;;;;;;40.25;38.00;;;;;7.19;65.78;101982.91;5057605;28;45443;-66
2022/01/19 07:25:13;;;;;;;;;48.75;43.00;;;;;7.20;66.26;101990.75;5057830;28;46065;-68
2022/01/19 07:27:39;;;;;;;;;44.25;41.00;;;;;7.20;66.67;101996.00;5057793;28;45375;-64
2022/01/19 07:30:05;;;;;;;;;43.00;39.50;;;;;7.18;66.42;101999.47;5057846;28;45325;-66
2022/01/19 07:32:34;;;;;;;;;49.25;41.50;;;;;7.15;66.98;101996.88;5057085;28;45663;-66
2022/01/19 07:35:00;;;;;;;;;50.25;42.25;;;;;7.14;67.07;102000.34;5038706;28;47029;-66
2022/01/19 07:37:26;;;;;;;;;44.50;40.25;;;;;7.08;67.29;102004.69;5057605;28;45420;-67
2022/01/19 07:39:51;;;;;;;;;51.25;40.75;;;;;7.07;67.98;102009.94;5057419;28;45428;-67
2022/01/19 07:42:17;;;;;;;;;42.00;38.25;;;;;7.05;68.03;102011.66;5057507;28;45600;-67
2022/01/19 07:44:42;;;;;;;;;44.75;36.25;;;;;7.04;67.43;102008.19;5056931;28;45534;-70
2022/01/19 07:47:08;;;;;;;;;49.00;43.50;;;;;7.04;68.03;102008.19;5057469;28;45461;-65
2022/01/19 07:49:33;;;;;;;;;44.00;38.00;;;;;7.01;68.11;101996.81;5057449;28;45434;-66
2022/01/19 07:51:58;;;;;;;;;43.25;38.75;;;;;6.99;68.32;102017.75;5057072;28;45376;-66
2022/01/19 07:54:24;;;;;;;;;40.25;39.00;;;;;6.98;68.24;102018.59;5056611;28;46323;-67
2022/01/19 07:56:49;;;;;;;;;43.25;40.00;;;;;7.03;68.48;102016.88;5057577;28;45393;-64
2022/01/19 07:59:16;;;;;;;;;48.25;39.00;;;;;7.03;68.33;102018.63;5057437;28;45399;-65
2022/01/19 08:01:41;;;;;;;;;40.00;37.25;;;;;6.99;68.56;102009.91;5057449;28;45480;-64
2022/01/19 08:04:06;;;;;;;;;40.25;38.00;;;;;6.95;67.91;102009.88;5057160;28;45405;-63
2022/01/19 08:06:32;;;;;;;;;37.75;33.50;;;;;6.97;68.57;102016.00;5056435;28;45472;-65
2022/01/19 08:08:57;;;;;;;;;47.25;38.50;;;;;6.97;68.49;102019.50;5055794;28;45440;-65
2022/01/19 08:11:23;;;;;;;;;39.25;33.25;;;;;6.99;68.75;102017.75;5057295;28;45358;-69
2022/01/19 08:13:49;;;;;;;;;53.00;42.75;;;;;7.01;68.35;102020.34;5057081;28;45989;-65
2022/01/19 08:16:15;;;;;;;;;47.00;40.00;;;;;7.03;68.90;102014.25;5056522;28;45426;-66
2022/01/19 08:18:40;;;;;;;;;44.50;40.50;;;;;7.02;68.59;102012.53;5057092;28;45499;-65
2022/01/19 08:21:05;;;;;;;;;36.25;33.25;;;;;7.04;68.18;102016.03;5056801;28;45376;-65
2022/01/19 08:23:31;;;;;;;;;48.25;41.00;;;;;7.07;68.73;102012.53;5056659;28;45441;-69
2022/01/19 08:25:56;;;;;;;;;36.00;35.25;;;;;7.10;68.32;102020.41;5056461;28;45497;-65
2022/01/19 08:28:21;;;;;;;;;41.75;35.25;;;;;7.08;68.31;102020.38;5037660;28;45496;-69
2022/01/19 08:30:47;;;;;;;;;45.00;37.50;;;;;7.11;68.12;102022.13;5056363;28;45440;-65
2022/01/19 08:33:13;;;;;;;;;38.75;35.75;;;;;7.11;68.63;102032.59;5056239;28;46010;-68
2022/01/19 08:35:38;;;;;;;;;36.75;33.75;;;;;7.09;67.88;102026.47;5056166;28;45429;-64
2022/01/19 08:38:04;;;;;;;;;48.50;40.75;;;;;7.11;68.76;102034.34;5056243;28;45492;-66
2022/01/19 08:40:30;;;;;;;;;40.75;37.00;;;;;7.11;68.44;102035.22;5056982;28;45367;-65
2022/01/19 08:42:56;;;;;;;;;42.75;38.00;;;;;7.14;68.73;102037.81;5037810;28;45816;-68
2022/01/19 08:45:22;;;;;;;;;35.50;34.50;;;;;7.14;68.13;102039.56;5038578;28;45401;-67
2022/01/19 08:47:47;;;;;;;;;42.75;35.00;;;;;7.18;68.22;102034.38;5056557;28;45408;-64
2022/01/19 08:50:15;;;;;;;;;40.00;34.50;;;;;7.18;67.88;102049.19;5056018;28;45417;-68
2022/01/19 08:52:42;;;;;;;;;34.00;32.25;;;;;7.15;68.15;102041.34;5056080;28;45587;-67
2022/01/19 08:55:08;;;;;;;;;37.00;35.75;;;;;7.15;68.08;102044.81;5056297;28;45525;-64
2022/01/19 08:57:34;;;;;;;;;43.50;38.75;;;;;7.13;68.03;102050.94;5056660;28;45427;-67
2022/01/19 08:59:59;;;;;;;;;40.75;34.50;;;;;7.11;68.50;102061.38;5055975;28;45635;-66
2022/01/19 09:02:24;;;;;;;;;40.25;37.25;;;;;7.11;68.62;102064.00;5055948;28;45388;-67
2022/01/19 09:04:50;;;;;;;;;32.25;30.00;;;;;7.10;68.70;102053.53;5056147;28;45396;-67
2022/01/19 09:07:17;;;;;;;;;44.75;36.50;;;;;7.13;68.24;102061.38;5056362;28;45381;-67
2022/01/19 09:09:42;;;;;;;;;26.50;24.25;;;;;7.08;68.70;102064.84;5056136;28;45396;-64
2022/01/19 09:12:08;;;;;;;;;34.00;33.75;;;;;7.13;68.09;102062.25;5055341;28;46086;-65
2022/01/19 09:14:34;;;;;;;;;44.50;38.00;;;;;7.13;68.50;102064.00;5056098;28;45585;-64
2022/01/19 09:17:01;;;;;;;;;37.75;35.00;;;;;7.16;68.84;102057.03;5056111;28;45484;-67
2022/01/19 09:19:27;;;;;;;;;43.25;37.75;;;;;7.16;68.12;102066.63;5055577;28;45360;-65
2022/01/19 09:21:52;;;;;;;;;39.25;36.25;;;;;7.21;68.56;102064.91;5055084;28;45416;-64
2022/01/19 09:24:20;;;;;;;;;42.50;38.50;;;;;7.19;68.49;102062.25;5055972;28;45447;-67
2022/01/19 09:26:45;;;;;;;;;37.00;31.75;;;;;7.21;68.19;102065.75;5056048;28;45461;-64
2022/01/19 09:29:11;;;;;;;;;41.75;37.00;;;;;7.22;68.58;102064.88;5055836;28;45402;-67
2022/01/19 09:31:39;;;;;;;;;38.25;37.75;;;;;7.25;68.28;102061.41;5055780;28;45368;-68
2022/01/19 09:34:14;;;;;;;;;41.25;37.75;;;;;7.26;67.64;102058.81;5055221;28;45460;-63
2022/01/19 09:36:46;;;;;;;;;41.75;38.00;;;;;7.29;68.24;102069.25;5055729;28;45436;-66
2022/01/19 09:39:20;;;;;;;;;43.00;37.50;;;;;7.27;68.25;102076.22;5055605;28;45435;-65
2022/01/19 09:41:48;;;;;;;;;36.25;32.50;;;;;7.25;67.71;102075.38;5055442;28;46608;-66
2022/01/19 09:44:15;;;;;;;;;40.00;35.25;;;;;7.26;67.69;102074.50;5055049;28;45413;-65
2022/01/19 09:46:40;;;;;;;;;36.50;30.50;;;;;7.26;67.50;102071.00;5055557;28;45448;-68
2022/01/19 09:49:06;;;;;;;;;43.25;35.25;;;;;7.29;67.77;102071.00;5055534;28;45428;-63
2022/01/19 09:51:32;;;;;;;;;41.50;37.50;;;;;7.30;67.77;102071.00;5055437;28;46160;-64
2022/01/19 09:53:58;;;;;;;;;40.25;31.50;;;;;7.32;67.80;102063.16;5055375;28;45449;-67
2022/01/19 09:56:23;;;;;;;;;40.25;36.00;;;;;7.36;67.53;102074.50;5054718;28;45389;-68
2022/01/19 09:58:49;;;;;;;;;37.25;35.50;;;;;7.37;67.43;102068.41;5055671;28;45425;-66
2022/01/19 10:01:23;;;;;;;;;42.75;36.50;;;;;7.37;67.63;102068.41;5055334;28;45418;-66
2022/01/19 10:03:49;;;;;;;;;52.25;43.00;;;;;7.36;67.55;102061.41;5055287;28;45494;-68
2022/01/19 10:06:18;;;;;;;;;41.00;37.00;;;;;7.39;67.57;102066.66;5054931;28;45461;-67
2022/01/19 10:08:54;;;;;;;;;39.25;38.00;;;;;7.40;67.14;102065.78;5055236;28;45499;-65
2022/01/19 10:17:01;;;;;;;;;45.25;39.75;;;;;7.36;67.55;102074.50;5054752;28;45401;-65
2022/01/19 10:19:32;;;;;;;;;47.50;40.25;;;;;7.37;67.27;102074.53;5054729;28;45540;-65
2022/01/19 10:22:05;;;;;;;;;47.00;37.75;;;;;7.36;67.68;102078.03;5052880;28;47637;-65
2022/01/19 10:24:52;;;;;;;;;49.50;40.25;;;;;7.37;68.24;102077.13;5054670;28;45327;-67
2022/01/19 10:27:22;;;;;;;;;45.00;37.50;;;;;7.36;67.60;102059.69;5054597;28;45471;-65
2022/01/19 10:30:04;;;;;;;;;52.50;39.50;;;;;7.40;67.58;102060.56;5054138;28;45317;-65
2022/01/19 10:32:32;;;;;;;;;52.50;44.00;;;;;7.43;67.49;102063.19;5056067;28;45908;-65
2022/01/19 10:35:11;;;;;;;;;39.50;38.00;;;;;7.40;67.95;102056.19;5057990;28;45437;-64
2022/01/19 10:37:36;;;;;;;;;45.75;41.00;;;;;7.42;67.24;102066.69;5058131;28;45435;-65
2022/01/19 10:40:02;;;;;;;;;54.00;40.75;;;;;7.42;67.71;102070.16;5057368;28;45679;-64
2022/01/19 10:42:31;;;;;;;;;48.25;40.75;;;;;7.39;67.38;102070.16;5057869;28;47373;-67
2022/01/19 10:45:08;;;;;;;;;40.75;34.75;;;;;7.38;67.94;102063.16;5040008;28;45540;-67
2022/01/19 10:47:56;;;;;;;;;48.25;40.75;;;;;7.39;67.79;102058.81;5058392;28;45455;-68
2022/01/19 10:50:28;;;;;;;;;53.25;43.50;;;;;7.44;67.52;102055.34;5057964;28;45394;-68
2022/01/19 10:52:55;;;;;;;;;46.75;41.25;;;;;7.47;68.06;102046.63;5056953;28;45506;-68
2022/01/19 10:55:20;;;;;;;;;50.50;43.25;;;;;7.49;67.99;102043.09;5058085;28;45452;-66
2022/01/19 10:57:47;;;;;;;;;52.00;42.25;;;;;7.53;67.59;102047.47;5058097;28;45491;-68
2022/01/19 11:00:15;;;;;;;;;48.00;41.25;;;;;7.52;67.97;102055.31;5058116;28;45422;-68
2022/01/19 11:02:42;;;;;;;;;51.50;42.75;;;;;7.52;67.97;102053.59;5057336;28;45498;-67
2022/01/19 11:05:08;;;;;;;;;55.00;45.00;;;;;7.46;67.75;102044.84;5057727;28;45380;-67
2022/01/19 11:07:33;;;;;;;;;63.00;51.00;;;;;7.45;67.67;102038.75;5057982;28;45365;-68
2022/01/19 11:10:13;;;;;;;;;65.75;50.75;;;;;7.46;67.75;102042.25;5058206;28;45532;-70
2022/01/19 11:12:53;;;;;;;;;59.00;48.00;;;;;7.42;68.40;102037.91;5057022;28;45411;-68
2022/01/19 11:15:19;;;;;;;;;57.50;48.00;;;;;7.41;68.09;102037.00;5057869;28;45453;-66
2022/01/19 11:17:46;;;;;;;;;64.75;52.00;;;;;7.39;68.77;102033.53;5057875;28;45524;-64
2022/01/19 11:20:15;;;;;;;;;67.50;52.25;;;;;7.38;68.54;102036.13;5057846;28;45556;-66
2022/01/19 11:23:06;;;;;;;;;65.50;52.50;;;;;7.40;68.73;102031.78;5057068;28;46310;-63
2022/01/19 11:25:47;;;;;;;;;62.75;50.50;;;;;7.43;68.69;102026.53;5057751;28;45465;-66
2022/01/19 11:28:32;;;;;;;;;59.75;48.00;;;;;7.45;68.72;102027.41;5057731;28;45472;-67
2022/01/19 11:30:57;;;;;;;;;61.25;49.75;;;;;7.45;68.58;102024.81;5057628;28;45462;-64
2022/01/19 11:33:28;;;;;;;;;63.50;48.00;;;;;7.43;68.97;102026.53;5057679;28;45425;-66
2022/01/19 11:35:55;;;;;;;;;67.50;53.25;;;;;7.42;69.25;102020.44;5039136;28;45652;-67
2022/01/19 11:38:38;;;;;;;;;61.25;50.75;;;;;7.42;69.16;102019.56;5039569;28;45547;-66
2022/01/19 11:41:09;;;;;;;;;58.75;50.00;;;;;7.43;68.65;102010.84;5057527;28;45365;-66
2022/01/19 11:43:47;;;;;;;;;64.50;52.50;;;;;7.45;68.84;102014.34;5056944;28;45436;-64
2022/01/19 11:46:40;;;;;;;;;62.50;51.50;;;;;7.38;68.86;102005.59;5057146;28;45381;-69
2022/01/19 11:49:09;;;;;;;;;62.50;50.00;;;;;7.35;69.08;101999.50;5054316;28;45413;-68
2022/01/19 11:51:38;;;;;;;;;63.25;50.50;;;;;7.39;69.64;102001.22;5057195;28;45377;-65
2022/01/19 11:54:11;;;;;;;;;56.75;46.25;;;;;7.38;68.88;101996.88;5038687;28;47059;-66
2022/01/19 11:56:59;;;;;;;;;61.50;49.00;;;;;7.42;69.79;101990.78;5057028;28;45428;-68
2022/01/19 11:59:44;;;;;;;;;61.75;49.50;;;;;7.45;69.64;101993.38;5038836;28;45453;-65
2022/01/19 12:02:21;;;;;;;;;59.25;48.75;;;;;7.48;69.84;101985.53;5056043;28;45572;-65
2022/01/19 12:05:11;;;;;;;;;61.00;46.00;;;;;7.47;69.65;101981.19;5057126;28;46312;-66
2022/01/19 12:07:39;;;;;;;;;57.75;48.00;;;;;7.46;69.77;101982.91;5037517;28;69939;-63
2022/01/19 12:10:11;;;;;;;;;56.25;43.75;;;;;7.46;68.88;101996.00;5057058;28;45558;-66
2022/01/19 12:12:44;;;;;;;;;53.25;43.00;;;;;7.42;69.35;101993.41;5056868;28;45391;-66
2022/01/19 12:19:13;;;;;;;;;54.00;45.00;;;;;7.42;68.97;101981.16;5011093;28;45600;-65
2022/01/19 12:22:02;;;;;;;;;50.50;43.50;;;;;7.46;69.22;101966.31;5048408;28;45635;-65
2022/01/19 12:24:37;;;;;;;;;54.25;44.25;;;;;7.53;69.16;101965.47;5037759;28;45504;-68
2022/01/19 12:27:15;;;;;;;;;40.50;38.00;;;;;7.56;69.44;101961.97;5056680;28;46082;-65
2022/01/19 12:29:51;;;;;;;;;41.75;37.00;;;;;7.54;68.76;101964.56;5055902;28;45390;-66
2022/01/19 12:32:16;;;;;;;;;44.25;40.00;;;;;7.54;68.52;101967.19;5056470;28;45449;-67
2022/01/19 12:34:46;;;;;;;;;35.75;31.50;;;;;7.51;69.13;101957.59;5056465;28;45440;-67
2022/01/19 12:37:32;;;;;;;;;37.75;35.75;;;;;7.48;68.40;101960.22;5056093;28;45507;-65
2022/01/19 12:40:03;;;;;;;;;35.00;31.25;;;;;7.49;69.12;101961.09;5055490;28;45493;-65
2022/01/19 12:42:54;;;;;;;;;38.50;36.75;;;;;7.50;69.11;101962.84;5056393;28;45457;-65
2022/01/19 12:45:25;;;;;;;;;36.75;33.00;;;;;7.51;68.62;101956.72;5056091;28;45424;-63
2022/01/19 12:47:53;;;;;;;;;40.75;32.75;;;;;7.53;68.93;101947.13;5055812;28;46291;-61
2022/01/19 12:50:18;;;;;;;;;37.00;34.50;;;;;7.58;68.54;101957.63;5055655;28;45520;-66
2022/01/19 12:52:45;;;;;;;;;27.50;27.00;;;;;7.58;68.47;101944.53;5055186;28;45505;-69
2022/01/19 12:55:13;;;;;;;;;35.25;33.25;;;;;7.62;68.58;101941.88;5055001;28;45573;-65